sensor_id;sensor_type;location;lat;lon;timestamp;temperature;humidity
49224;DHT22;35050;51.316;5.994;2023-04-01T00:01:38;10.60;99.90
49224;DHT22;35050;51.316;5.994;2023-04-01T00:04:04;10.50;99.90
49224;DHT22;35050;51.316;5.994;2023-04-01T00:06:30;10.60;99.90
49224;DHT22;35050;51.316;5.994;2023-04-01T00:08:56;10.50;99.90
49224;DHT22;35050;51.316;5.994;2023-04-01T00:11:21;10.50;99.90
49224;DHT22;35050;51.316;5.994;2023-04-01T00:13:47;10.40;99.90
49224;DHT22;35050;51.316;5.994;2023-04-01T00:16:13;10.50;99.90
49224;DHT22;35050;51.316;5.994;2023-04-01T00:18:39;10.60;99.90
49224;DHT22;35050;51.316;5.994;2023-04-01T00:21:05;10.50;99.90
49224;DHT22;35050;51.316;5.994;2023-04-01T00:23:31;10.50;99.90
49224;DHT22;35050;51.316;5.994;2023-04-01T00:26:00;10.50;99.90
49224;DHT22;35050;51.316;5.994;2023-04-01T00:28:26;10.50;99.90
49224;DHT22;35050;51.316;5.994;2023-04-01T00:30:52;10.50;99.90
49224;DHT22;35050;51.316;5.994;2023-04-01T00:33:18;10.50;99.90
49224;DHT22;35050;51.316;5.994;2023-04-01T00:35:44;10.60;99.90
49224;DHT22;35050;51.316;5.994;2023-04-01T00:38:10;10.50;99.90
49224;DHT22;35050;51.316;5.994;2023-04-01T00:40:42;10.50;99.90
49224;DHT22;35050;51.316;5.994;2023-04-01T00:43:19;10.50;99.90
49224;DHT22;35050;51.316;5.994;2023-04-01T00:45:47;10.50;99.90
49224;DHT22;35050;51.316;5.994;2023-04-01T00:48:20;10.40;99.90
49224;DHT22;35050;51.316;5.994;2023-04-01T00:51:09;10.40;99.90
49224;DHT22;35050;51.316;5.994;2023-04-01T00:53:39;10.40;99.90
49224;DHT22;35050;51.316;5.994;2023-04-01T00:56:11;10.40;99.90
49224;DHT22;35050;51.316;5.994;2023-04-01T00:58:41;10.40;99.90
49224;DHT22;35050;51.316;5.994;2023-04-01T01:01:09;10.40;99.90
49224;DHT22;35050;51.316;5.994;2023-04-01T01:03:35;10.40;99.90
49224;DHT22;35050;51.316;5.994;2023-04-01T01:11:26;10.40;99.90
49224;DHT22;35050;51.316;5.994;2023-04-01T01:14:45;10.50;99.90
49224;DHT22;35050;51.316;5.994;2023-04-01T01:16:54;10.50;99.90
49224;DHT22;35050;51.316;5.994;2023-04-01T01:27:20;10.30;99.90
49224;DHT22;35050;51.316;5.994;2023-04-01T01:37:39;10.40;99.90
49224;DHT22;35050;51.316;5.994;2023-04-01T01:40:08;10.30;99.90
49224;DHT22;35050;51.316;5.994;2023-04-01T01:42:37;10.30;99.90
49224;DHT22;35050;51.316;5.994;2023-04-01T01:45:04;10.30;99.90
49224;DHT22;35050;51.316;5.994;2023-04-01T01:47:32;10.30;99.90
49224;DHT22;35050;51.316;5.994;2023-04-01T01:49:59;10.40;99.90
49224;DHT22;35050;51.316;5.994;2023-04-01T01:52:27;10.40;99.90
49224;DHT22;35050;51.316;5.994;2023-04-01T01:54:55;10.50;99.90
49224;DHT22;35050;51.316;5.994;2023-04-01T01:57:31;10.50;99.90
49224;DHT22;35050;51.316;5.994;2023-04-01T02:00:10;10.40;99.90
49224;DHT22;35050;51.316;5.994;2023-04-01T02:02:40;10.40;99.90
49224;DHT22;35050;51.316;5.994;2023-04-01T02:05:10;10.40;99.90
49224;DHT22;35050;51.316;5.994;2023-04-01T02:07:37;10.40;99.90
49224;DHT22;35050;51.316;5.994;2023-04-01T02:10:05;10.40;99.90
49224;DHT22;35050;51.316;5.994;2023-04-01T02:12:33;10.50;99.90
49224;DHT22;35050;51.316;5.994;2023-04-01T02:15:05;10.50;99.90
49224;DHT22;35050;51.316;5.994;2023-04-01T02:17:34;10.40;99.90
49224;DHT22;35050;51.316;5.994;2023-04-01T02:20:14;10.50;99.90
49224;DHT22;35050;51.316;5.994;2023-04-01T02:22:48;10.40;99.90
49224;DHT22;35050;51.316;5.994;2023-04-01T02:25:19;10.40;99.90
49224;DHT22;35050;51.316;5.994;2023-04-01T02:27:46;10.40;99.90
49224;DHT22;35050;51.316;5.994;2023-04-01T02:30:14;10.40;99.90
49224;DHT22;35050;51.316;5.994;2023-04-01T02:32:40;10.30;99.90
49224;DHT22;35050;51.316;5.994;2023-04-01T02:35:12;10.40;99.90
49224;DHT22;35050;51.316;5.994;2023-04-01T02:37:39;10.40;99.90
49224;DHT22;35050;51.316;5.994;2023-04-01T02:40:13;10.40;99.90
49224;DHT22;35050;51.316;5.994;2023-04-01T02:42:39;10.40;99.90
49224;DHT22;35050;51.316;5.994;2023-04-01T02:45:05;10.40;99.90
49224;DHT22;35050;51.316;5.994;2023-04-01T02:47:31;10.50;99.90
49224;DHT22;35050;51.316;5.994;2023-04-01T02:49:57;10.50;99.90
49224;DHT22;35050;51.316;5.994;2023-04-01T02:52:27;10.40;99.90
49224;DHT22;35050;51.316;5.994;2023-04-01T02:54:54;10.40;99.90
49224;DHT22;35050;51.316;5.994;2023-04-01T02:57:20;10.40;99.90
49224;DHT22;35050;51.316;5.994;2023-04-01T02:59:46;10.30;99.90
49224;DHT22;35050;51.316;5.994;2023-04-01T03:02:12;10.30;99.90
49224;DHT22;35050;51.316;5.994;2023-04-01T03:04:38;10.40;99.90
49224;DHT22;35050;51.316;5.994;2023-04-01T03:07:04;10.40;99.90
49224;DHT22;35050;51.316;5.994;2023-04-01T03:09:29;10.40;99.90
49224;DHT22;35050;51.316;5.994;2023-04-01T03:11:55;10.30;99.90
49224;DHT22;35050;51.316;5.994;2023-04-01T03:14:21;10.30;99.90
49224;DHT22;35050;51.316;5.994;2023-04-01T03:16:47;10.40;99.90
49224;DHT22;35050;51.316;5.994;2023-04-01T03:19:12;10.40;99.90
49224;DHT22;35050;51.316;5.994;2023-04-01T03:21:38;10.30;99.90
49224;DHT22;35050;51.316;5.994;2023-04-01T03:24:05;10.30;99.90
49224;DHT22;35050;51.316;5.994;2023-04-01T03:26:31;10.40;99.90
49224;DHT22;35050;51.316;5.994;2023-04-01T03:28:57;10.30;99.90
49224;DHT22;35050;51.316;5.994;2023-04-01T03:31:23;10.40;99.90
49224;DHT22;35050;51.316;5.994;2023-04-01T03:33:49;10.40;99.90
49224;DHT22;35050;51.316;5.994;2023-04-01T03:36:16;10.50;99.90
49224;DHT22;35050;51.316;5.994;2023-04-01T03:38:42;10.40;99.90
49224;DHT22;35050;51.316;5.994;2023-04-01T03:41:12;10.30;99.90
49224;DHT22;35050;51.316;5.994;2023-04-01T03:43:38;10.40;99.90
49224;DHT22;35050;51.316;5.994;2023-04-01T03:46:04;10.40;99.90
49224;DHT22;35050;51.316;5.994;2023-04-01T03:48:30;10.40;99.90
49224;DHT22;35050;51.316;5.994;2023-04-01T03:50:56;10.30;99.90
49224;DHT22;35050;51.316;5.994;2023-04-01T03:53:22;10.30;99.90
49224;DHT22;35050;51.316;5.994;2023-04-01T03:55:47;10.30;99.90
49224;DHT22;35050;51.316;5.994;2023-04-01T03:58:13;10.40;99.90
49224;DHT22;35050;51.316;5.994;2023-04-01T04:00:39;10.30;99.90
49224;DHT22;35050;51.316;5.994;2023-04-01T04:03:06;10.40;99.90
49224;DHT22;35050;51.316;5.994;2023-04-01T04:05:31;10.40;99.90
49224;DHT22;35050;51.316;5.994;2023-04-01T04:07:57;10.40;99.90
49224;DHT22;35050;51.316;5.994;2023-04-01T04:10:23;10.40;99.90
49224;DHT22;35050;51.316;5.994;2023-04-01T04:12:50;10.40;99.90
49224;DHT22;35050;51.316;5.994;2023-04-01T04:15:16;10.40;99.90
49224;DHT22;35050;51.316;5.994;2023-04-01T04:17:42;10.20;99.90
49224;DHT22;35050;51.316;5.994;2023-04-01T04:20:08;10.30;99.90
49224;DHT22;35050;51.316;5.994;2023-04-01T04:22:34;10.40;99.90
49224;DHT22;35050;51.316;5.994;2023-04-01T04:25:00;10.40;99.90
49224;DHT22;35050;51.316;5.994;2023-04-01T04:27:25;10.30;99.90
49224;DHT22;35050;51.316;5.994;2023-04-01T04:29:51;10.30;99.90
49224;DHT22;35050;51.316;5.994;2023-04-01T04:32:17;10.20;99.90
49224;DHT22;35050;51.316;5.994;2023-04-01T04:34:42;10.20;99.90
49224;DHT22;35050;51.316;5.994;2023-04-01T04:37:08;10.20;99.90
49224;DHT22;35050;51.316;5.994;2023-04-01T04:39:33;10.20;99.90
49224;DHT22;35050;51.316;5.994;2023-04-01T04:41:59;10.20;99.90
49224;DHT22;35050;51.316;5.994;2023-04-01T04:44:25;10.20;99.90
49224;DHT22;35050;51.316;5.994;2023-04-01T04:46:51;10.30;99.90
49224;DHT22;35050;51.316;5.994;2023-04-01T04:49:17;10.30;99.90
49224;DHT22;35050;51.316;5.994;2023-04-01T04:51:42;10.30;99.90
49224;DHT22;35050;51.316;5.994;2023-04-01T04:54:08;10.20;99.90
49224;DHT22;35050;51.316;5.994;2023-04-01T04:56:34;10.30;99.90
49224;DHT22;35050;51.316;5.994;2023-04-01T04:59:01;10.30;99.90
49224;DHT22;35050;51.316;5.994;2023-04-01T05:01:27;10.20;99.90
49224;DHT22;35050;51.316;5.994;2023-04-01T05:03:53;10.20;99.90
49224;DHT22;35050;51.316;5.994;2023-04-01T05:06:19;10.20;99.90
49224;DHT22;35050;51.316;5.994;2023-04-01T05:08:45;10.20;99.90
49224;DHT22;35050;51.316;5.994;2023-04-01T05:11:17;10.30;99.90
49224;DHT22;35050;51.316;5.994;2023-04-01T05:13:43;10.10;99.90
49224;DHT22;35050;51.316;5.994;2023-04-01T05:16:10;10.10;99.90
49224;DHT22;35050;51.316;5.994;2023-04-01T05:18:36;10.20;99.90
49224;DHT22;35050;51.316;5.994;2023-04-01T05:21:02;10.10;99.90
49224;DHT22;35050;51.316;5.994;2023-04-01T05:23:28;10.20;99.90
49224;DHT22;35050;51.316;5.994;2023-04-01T05:25:53;10.20;99.90
49224;DHT22;35050;51.316;5.994;2023-04-01T05:28:20;10.20;99.90
49224;DHT22;35050;51.316;5.994;2023-04-01T05:30:45;10.10;99.90
49224;DHT22;35050;51.316;5.994;2023-04-01T05:33:12;10.20;99.90
49224;DHT22;35050;51.316;5.994;2023-04-01T05:35:39;10.20;99.90
49224;DHT22;35050;51.316;5.994;2023-04-01T05:38:05;10.20;99.90
49224;DHT22;35050;51.316;5.994;2023-04-01T05:40:32;10.10;99.90
49224;DHT22;35050;51.316;5.994;2023-04-01T05:42:58;10.20;99.90
49224;DHT22;35050;51.316;5.994;2023-04-01T05:45:25;10.10;99.90
49224;DHT22;35050;51.316;5.994;2023-04-01T05:47:51;10.20;99.90
49224;DHT22;35050;51.316;5.994;2023-04-01T05:50:17;10.20;99.90
49224;DHT22;35050;51.316;5.994;2023-04-01T05:52:42;10.10;99.90
49224;DHT22;35050;51.316;5.994;2023-04-01T05:55:08;10.10;99.90
49224;DHT22;35050;51.316;5.994;2023-04-01T05:57:34;10.10;99.90
49224;DHT22;35050;51.316;5.994;2023-04-01T05:59:59;10.00;99.90
49224;DHT22;35050;51.316;5.994;2023-04-01T06:02:25;10.10;99.90
49224;DHT22;35050;51.316;5.994;2023-04-01T06:05:01;10.00;99.90
49224;DHT22;35050;51.316;5.994;2023-04-01T06:07:29;10.00;99.90
49224;DHT22;35050;51.316;5.994;2023-04-01T06:09:54;10.10;99.90
49224;DHT22;35050;51.316;5.994;2023-04-01T06:17:51;10.00;99.90
49224;DHT22;35050;51.316;5.994;2023-04-01T06:34:26;10.00;99.90
49224;DHT22;35050;51.316;5.994;2023-04-01T06:37:27;10.10;99.90
49224;DHT22;35050;51.316;5.994;2023-04-01T06:47:59;10.10;99.90
49224;DHT22;35050;51.316;5.994;2023-04-01T06:50:53;10.10;99.90
49224;DHT22;35050;51.316;5.994;2023-04-01T06:53:53;10.10;99.90
49224;DHT22;35050;51.316;5.994;2023-04-01T06:56:22;10.20;99.90
49224;DHT22;35050;51.316;5.994;2023-04-01T07:01:22;10.10;99.90
49224;DHT22;35050;51.316;5.994;2023-04-01T07:04:13;10.10;99.90
49224;DHT22;35050;51.316;5.994;2023-04-01T07:06:58;10.10;99.90
49224;DHT22;35050;51.316;5.994;2023-04-01T07:09:32;10.10;99.90
49224;DHT22;35050;51.316;5.994;2023-04-01T07:12:00;10.10;99.90
49224;DHT22;35050;51.316;5.994;2023-04-01T07:14:32;10.10;99.90
49224;DHT22;35050;51.316;5.994;2023-04-01T07:17:20;10.00;99.90
49224;DHT22;35050;51.316;5.994;2023-04-01T07:19:50;10.10;99.90
49224;DHT22;35050;51.316;5.994;2023-04-01T07:25:16;10.10;99.90
49224;DHT22;35050;51.316;5.994;2023-04-01T07:27:43;10.10;99.90
49224;DHT22;35050;51.316;5.994;2023-04-01T07:30:18;10.10;99.90
49224;DHT22;35050;51.316;5.994;2023-04-01T07:32:52;10.10;99.90
49224;DHT22;35050;51.316;5.994;2023-04-01T07:35:47;10.10;99.90
49224;DHT22;35050;51.316;5.994;2023-04-01T07:38:28;10.10;99.90
49224;DHT22;35050;51.316;5.994;2023-04-01T07:44:08;10.10;99.90
49224;DHT22;35050;51.316;5.994;2023-04-01T07:54:35;10.30;99.90
49224;DHT22;35050;51.316;5.994;2023-04-01T07:57:49;10.30;99.90
49224;DHT22;35050;51.316;5.994;2023-04-01T08:13:58;10.70;99.90
49224;DHT22;35050;51.316;5.994;2023-04-01T08:16:38;10.60;99.90
49224;DHT22;35050;51.316;5.994;2023-04-01T08:22:27;10.80;99.90
49224;DHT22;35050;51.316;5.994;2023-04-01T08:24:55;10.70;99.90
49224;DHT22;35050;51.316;5.994;2023-04-01T08:27:39;10.80;99.90
49224;DHT22;35050;51.316;5.994;2023-04-01T08:30:35;10.70;99.90
49224;DHT22;35050;51.316;5.994;2023-04-01T08:38:42;10.90;99.90
49224;DHT22;35050;51.316;5.994;2023-04-01T08:48:59;10.90;99.90
49224;DHT22;35050;51.316;5.994;2023-04-01T08:51:43;10.90;99.90
49224;DHT22;35050;51.316;5.994;2023-04-01T08:57:04;10.90;99.90
49224;DHT22;35050;51.316;5.994;2023-04-01T09:02:39;11.00;99.90
49224;DHT22;35050;51.316;5.994;2023-04-01T09:11:00;12.00;99.90
49224;DHT22;35050;51.316;5.994;2023-04-01T09:19:21;11.10;99.90
49224;DHT22;35050;51.316;5.994;2023-04-01T09:22:10;11.30;99.90
49224;DHT22;35050;51.316;5.994;2023-04-01T09:27:44;11.40;99.90
49224;DHT22;35050;51.316;5.994;2023-04-01T09:36:25;11.60;99.90
49224;DHT22;35050;51.316;5.994;2023-04-01T09:44:57;11.40;99.90
49224;DHT22;35050;51.316;5.994;2023-04-01T09:47:45;11.30;99.90
49224;DHT22;35050;51.316;5.994;2023-04-01T10:05:19;11.30;99.90
49224;DHT22;35050;51.316;5.994;2023-04-01T10:11:22;11.50;99.90
49224;DHT22;35050;51.316;5.994;2023-04-01T10:25:15;11.40;99.90
49224;DHT22;35050;51.316;5.994;2023-04-01T11:17:04;11.70;99.90
49224;DHT22;35050;51.316;5.994;2023-04-01T11:30:53;11.40;99.90
49224;DHT22;35050;51.316;5.994;2023-04-01T11:33:31;11.40;99.90
49224;DHT22;35050;51.316;5.994;2023-04-01T11:41:38;11.40;99.90
49224;DHT22;35050;51.316;5.994;2023-04-01T11:44:16;11.30;99.90
49224;DHT22;35050;51.316;5.994;2023-04-01T12:04:18;11.30;99.90
49224;DHT22;35050;51.316;5.994;2023-04-01T12:18:35;11.60;99.90
49224;DHT22;35050;51.316;5.994;2023-04-01T12:23:53;11.50;99.90
49224;DHT22;35050;51.316;5.994;2023-04-01T12:37:36;11.50;99.90
49224;DHT22;35050;51.316;5.994;2023-04-01T12:45:32;11.30;99.90
49224;DHT22;35050;51.316;5.994;2023-04-01T12:51:29;11.30;99.90
49224;DHT22;35050;51.316;5.994;2023-04-01T12:56:49;11.50;99.90
49224;DHT22;35050;51.316;5.994;2023-04-01T13:02:25;11.60;99.90
49224;DHT22;35050;51.316;5.994;2023-04-01T13:07:39;11.60;99.90
49224;DHT22;35050;51.316;5.994;2023-04-01T13:15:40;11.60;99.90
49224;DHT22;35050;51.316;5.994;2023-04-01T13:24:01;11.60;99.90
49224;DHT22;35050;51.316;5.994;2023-04-01T13:26:43;11.60;99.90
49224;DHT22;35050;51.316;5.994;2023-04-01T13:34:51;11.70;99.90
49224;DHT22;35050;51.316;5.994;2023-04-01T13:40:16;11.80;99.90
49224;DHT22;35050;51.316;5.994;2023-04-01T13:42:49;11.80;99.90
49224;DHT22;35050;51.316;5.994;2023-04-01T13:45:22;11.80;99.90
49224;DHT22;35050;51.316;5.994;2023-04-01T13:51:10;11.80;99.90
49224;DHT22;35050;51.316;5.994;2023-04-01T13:53:53;11.80;99.90
49224;DHT22;35050;51.316;5.994;2023-04-01T13:56:33;11.70;99.90
49224;DHT22;35050;51.316;5.994;2023-04-01T14:29:51;11.60;99.90
49224;DHT22;35050;51.316;5.994;2023-04-01T14:46:26;11.40;99.90
49224;DHT22;35050;51.316;5.994;2023-04-01T14:49:16;11.50;99.90
49224;DHT22;35050;51.316;5.994;2023-04-01T14:51:46;11.50;99.90
49224;DHT22;35050;51.316;5.994;2023-04-01T14:54:13;11.30;99.90
49224;DHT22;35050;51.316;5.994;2023-04-01T14:56:49;11.50;99.90
49224;DHT22;35050;51.316;5.994;2023-04-01T15:01:50;11.20;99.90
49224;DHT22;35050;51.316;5.994;2023-04-01T15:06:55;11.20;99.90
49224;DHT22;35050;51.316;5.994;2023-04-01T15:14:49;11.20;99.90
49224;DHT22;35050;51.316;5.994;2023-04-01T15:19:58;11.30;99.90
49224;DHT22;35050;51.316;5.994;2023-04-01T15:39:21;11.10;99.90
49224;DHT22;35050;51.316;5.994;2023-04-01T15:58:01;11.00;99.90
49224;DHT22;35050;51.316;5.994;2023-04-01T16:03:37;10.90;99.90
49224;DHT22;35050;51.316;5.994;2023-04-01T16:06:17;11.00;99.90
49224;DHT22;35050;51.316;5.994;2023-04-01T16:09:09;11.00;99.90
49224;DHT22;35050;51.316;5.994;2023-04-01T16:14:51;11.10;99.90
49224;DHT22;35050;51.316;5.994;2023-04-01T16:22:39;11.10;99.90
49224;DHT22;35050;51.316;5.994;2023-04-01T16:25:17;11.10;99.90
49224;DHT22;35050;51.316;5.994;2023-04-01T16:28:16;11.10;99.90
49224;DHT22;35050;51.316;5.994;2023-04-01T16:43:39;11.20;99.90
49224;DHT22;35050;51.316;5.994;2023-04-01T16:51:32;11.10;99.90
49224;DHT22;35050;51.316;5.994;2023-04-01T16:54:11;11.00;99.90
49224;DHT22;35050;51.316;5.994;2023-04-01T16:57:01;11.00;99.90
49224;DHT22;35050;51.316;5.994;2023-04-01T16:59:38;11.00;99.90
49224;DHT22;35050;51.316;5.994;2023-04-01T17:12:32;10.90;99.90
49224;DHT22;35050;51.316;5.994;2023-04-01T17:32:25;10.80;99.90
49224;DHT22;35050;51.316;5.994;2023-04-01T17:34:52;10.80;99.90
49224;DHT22;35050;51.316;5.994;2023-04-01T17:37:57;10.90;99.90
49224;DHT22;35050;51.316;5.994;2023-04-01T17:40:57;10.80;99.90
49224;DHT22;35050;51.316;5.994;2023-04-01T17:43:44;10.80;99.90
49224;DHT22;35050;51.316;5.994;2023-04-01T17:51:43;10.70;99.90
49224;DHT22;35050;51.316;5.994;2023-04-01T17:57:02;10.80;99.90
49224;DHT22;35050;51.316;5.994;2023-04-01T17:59:44;10.70;99.90
49224;DHT22;35050;51.316;5.994;2023-04-01T18:02:42;10.70;99.90
49224;DHT22;35050;51.316;5.994;2023-04-01T18:10:48;10.80;99.90
49224;DHT22;35050;51.316;5.994;2023-04-01T18:13:39;10.70;99.90
49224;DHT22;35050;51.316;5.994;2023-04-01T18:16:41;10.60;99.90
49224;DHT22;35050;51.316;5.994;2023-04-01T18:30:07;10.70;99.90
49224;DHT22;35050;51.316;5.994;2023-04-01T18:32:59;10.70;99.90
49224;DHT22;35050;51.316;5.994;2023-04-01T18:38:33;10.70;99.90
49224;DHT22;35050;51.316;5.994;2023-04-01T18:41:15;10.70;99.90
49224;DHT22;35050;51.316;5.994;2023-04-01T18:44:26;11.60;99.90
49224;DHT22;35050;51.316;5.994;2023-04-01T18:47:07;11.20;99.90
49224;DHT22;35050;51.316;5.994;2023-04-01T18:49:54;11.20;99.90
49224;DHT22;35050;51.316;5.994;2023-04-01T18:52:34;11.10;99.90
49224;DHT22;35050;51.316;5.994;2023-04-01T18:57:49;11.10;99.90
49224;DHT22;35050;51.316;5.994;2023-04-01T19:03:20;11.10;99.90
49224;DHT22;35050;51.316;5.994;2023-04-01T19:05:48;11.20;99.90
49224;DHT22;35050;51.316;5.994;2023-04-01T19:08:31;11.10;99.90
49224;DHT22;35050;51.316;5.994;2023-04-01T19:11:17;10.90;99.90
49224;DHT22;35050;51.316;5.994;2023-04-01T19:14:13;10.90;99.90
49224;DHT22;35050;51.316;5.994;2023-04-01T19:17:30;10.90;99.90
49224;DHT22;35050;51.316;5.994;2023-04-01T19:22:40;10.80;99.90
49224;DHT22;35050;51.316;5.994;2023-04-01T19:27:51;10.80;99.90
49224;DHT22;35050;51.316;5.994;2023-04-01T19:36:04;10.70;99.90
49224;DHT22;35050;51.316;5.994;2023-04-01T19:38:53;10.70;99.90
49224;DHT22;35050;51.316;5.994;2023-04-01T19:41:38;10.70;99.90
49224;DHT22;35050;51.316;5.994;2023-04-01T19:44:15;10.70;99.90
49224;DHT22;35050;51.316;5.994;2023-04-01T19:46:51;10.80;99.90
49224;DHT22;35050;51.316;5.994;2023-04-01T19:52:12;10.60;99.90
49224;DHT22;35050;51.316;5.994;2023-04-01T20:00:00;10.50;99.90
49224;DHT22;35050;51.316;5.994;2023-04-01T20:08:16;10.50;99.90
49224;DHT22;35050;51.316;5.994;2023-04-01T20:13:49;10.40;99.90
49224;DHT22;35050;51.316;5.994;2023-04-01T20:16:18;10.40;99.90
49224;DHT22;35050;51.316;5.994;2023-04-01T20:18:57;10.30;99.90
49224;DHT22;35050;51.316;5.994;2023-04-01T20:26:42;10.40;99.90
49224;DHT22;35050;51.316;5.994;2023-04-01T20:29:41;10.30;99.90
49224;DHT22;35050;51.316;5.994;2023-04-01T20:37:35;10.20;99.90
49224;DHT22;35050;51.316;5.994;2023-04-01T20:54:47;10.20;99.90
49224;DHT22;35050;51.316;5.994;2023-04-01T20:59:59;9.90;99.90
49224;DHT22;35050;51.316;5.994;2023-04-01T21:16:47;9.90;99.90
49224;DHT22;35050;51.316;5.994;2023-04-01T21:24:52;9.90;99.90
49224;DHT22;35050;51.316;5.994;2023-04-01T21:33:38;9.90;99.90
49224;DHT22;35050;51.316;5.994;2023-04-01T21:44:47;9.70;99.90
49224;DHT22;35050;51.316;5.994;2023-04-01T22:06:52;9.50;99.90
49224;DHT22;35050;51.316;5.994;2023-04-01T22:09:31;9.40;99.90
49224;DHT22;35050;51.316;5.994;2023-04-01T22:14:59;9.30;99.90
49224;DHT22;35050;51.316;5.994;2023-04-01T22:17:45;9.30;99.90
49224;DHT22;35050;51.316;5.994;2023-04-01T22:30:51;9.20;99.90
49224;DHT22;35050;51.316;5.994;2023-04-01T22:36:18;9.20;99.90
49224;DHT22;35050;51.316;5.994;2023-04-01T22:44:43;9.00;99.90
49224;DHT22;35050;51.316;5.994;2023-04-01T22:50:14;9.00;99.90
49224;DHT22;35050;51.316;5.994;2023-04-01T22:52:47;9.00;99.90
49224;DHT22;35050;51.316;5.994;2023-04-01T22:55:27;9.00;99.90
49224;DHT22;35050;51.316;5.994;2023-04-01T22:58:26;9.00;99.90
49224;DHT22;35050;51.316;5.994;2023-04-01T23:00:59;8.90;99.90
49224;DHT22;35050;51.316;5.994;2023-04-01T23:03:40;8.90;99.90
49224;DHT22;35050;51.316;5.994;2023-04-01T23:06:09;8.80;99.90
49224;DHT22;35050;51.316;5.994;2023-04-01T23:09:05;8.80;99.90
49224;DHT22;35050;51.316;5.994;2023-04-01T23:12:12;8.80;99.90
49224;DHT22;35050;51.316;5.994;2023-04-01T23:14:49;8.90;99.90
49224;DHT22;35050;51.316;5.994;2023-04-01T23:35:53;8.80;99.90
49224;DHT22;35050;51.316;5.994;2023-04-01T23:38:25;8.70;99.90
49224;DHT22;35050;51.316;5.994;2023-04-01T23:40:53;8.60;99.90
49224;DHT22;35050;51.316;5.994;2023-04-01T23:43:34;8.60;99.90
49224;DHT22;35050;51.316;5.994;2023-04-01T23:46:03;8.70;99.90
49224;DHT22;35050;51.316;5.994;2023-04-01T23:48:35;8.70;99.90
49224;DHT22;35050;51.316;5.994;2023-04-01T23:51:02;8.80;99.90
49224;DHT22;35050;51.316;5.994;2023-04-01T23:53:33;8.80;99.90
49224;DHT22;35050;51.316;5.994;2023-04-01T23:56:00;8.70;99.90
49224;DHT22;35050;51.316;5.994;2023-04-01T23:58:49;8.60;99.90
